Time;durP1;ratioP1;P1;durP2;ratioP2;P2;SDS_P1;SDS_P2;PMS_P1;PMS_P2;Temp;Humidity;BMP_temperature;BMP_pressure;BME280_temperature;BME280_humidity;BME280_pressure;Samples;Min_cycle;Max_cycle;Signal;HPM_P1;HPM_P2
2021/05/21 00:01:56;;;;;;;9.00;6.30;;;;;;;;;;5014894;28;20041;-52
2021/05/21 00:04:27;;;;;;;11.50;8.27;;;;;;;;;;5014922;28;20022;-53
2021/05/21 00:06:54;;;;;;;7.33;4.47;;;;;;;;;;5014776;28;20018;-53
2021/05/21 00:09:21;;;;;;;7.13;3.73;;;;;;;;;;5014225;28;20121;-53
2021/05/21 00:11:48;;;;;;;5.37;4.10;;;;;;;;;;5006506;28;20026;-53
2021/05/21 00:14:14;;;;;;;10.40;4.30;;;;;;;;;;5014039;28;20030;-53
2021/05/21 00:16:41;;;;;;;5.77;3.90;;;;;;;;;;5014746;28;20503;-53
2021/05/21 00:19:08;;;;;;;7.10;4.60;;;;;;;;;;5014681;28;20099;-53
2021/05/21 00:21:35;;;;;;;8.67;4.00;;;;;;;;;;5014516;28;20081;-53
2021/05/21 00:24:02;;;;;;;6.87;3.93;;;;;;;;;;5014472;28;20116;-53
2021/05/21 00:26:28;;;;;;;7.00;4.40;;;;;;;;;;5014821;28;20018;-53
2021/05/21 00:28:56;;;;;;;8.43;4.50;;;;;;;;;;5014444;28;20026;-53
2021/05/21 00:31:23;;;;;;;7.90;3.50;;;;;;;;;;5014441;28;20037;-53
2021/05/21 00:33:50;;;;;;;18.73;5.00;;;;;;;;;;5014143;28;20393;-57
2021/05/21 00:36:17;;;;;;;12.70;5.03;;;;;;;;;;5014228;28;20029;-59
2021/05/21 00:54:23;;;;;;;26.70;6.43;;;;;;;;;;4738317;27;9485940;-65
2021/05/21 00:56:50;;;;;;;22.13;7.03;;;;;;;;;;5069997;28;20446;-64
2021/05/21 00:59:17;;;;;;;23.30;7.13;;;;;;;;;;5069887;28;20056;-68
2021/05/21 01:01:45;;;;;;;22.13;6.33;;;;;;;;;;5069786;28;20111;-63
2021/05/21 01:04:13;;;;;;;22.97;6.07;;;;;;;;;;5070115;28;20467;-64
2021/05/21 01:06:40;;;;;;;24.93;7.57;;;;;;;;;;5069855;28;20429;-63
2021/05/21 01:09:07;;;;;;;23.73;6.53;;;;;;;;;;5069833;28;20086;-63
2021/05/21 01:11:34;;;;;;;31.73;8.30;;;;;;;;;;5069682;28;20029;-65
2021/05/21 01:14:01;;;;;;;38.73;8.40;;;;;;;;;;5069553;28;20029;-64
2021/05/21 01:16:27;;;;;;;28.90;7.60;;;;;;;;;;5069917;28;20463;-64
2021/05/21 01:18:55;;;;;;;7.10;4.83;;;;;;;;;;5069550;28;20088;-62
2021/05/21 01:21:22;;;;;;;10.40;6.93;;;;;;;;;;5069493;28;20029;-63
2021/05/21 01:23:49;;;;;;;11.63;6.53;;;;;;;;;;5069410;28;20043;-62
2021/05/21 01:26:16;;;;;;;11.73;8.40;;;;;;;;;;5069392;28;20443;-62
2021/05/21 01:28:43;;;;;;;12.83;8.43;;;;;;;;;;5069393;28;20036;-62
2021/05/21 01:31:10;;;;;;;10.87;8.33;;;;;;;;;;5069246;28;20091;-61
2021/05/21 01:33:37;;;;;;;12.47;7.93;;;;;;;;;;5069254;28;20021;-61
2021/05/21 01:36:04;;;;;;;10.97;8.20;;;;;;;;;;5069324;28;20463;-61
2021/05/21 01:38:31;;;;;;;11.07;8.13;;;;;;;;;;5069200;28;20052;-61
2021/05/21 01:40:59;;;;;;;11.73;7.77;;;;;;;;;;5069135;28;20033;-61
2021/05/21 01:43:26;;;;;;;10.07;8.23;;;;;;;;;;5069265;28;20033;-61
2021/05/21 01:45:53;;;;;;;10.77;8.30;;;;;;;;;;5069041;28;20025;-61
2021/05/21 01:48:20;;;;;;;12.40;7.47;;;;;;;;;;5069013;28;20063;-60
2021/05/21 01:50:47;;;;;;;13.60;8.53;;;;;;;;;;5068690;28;20028;-60
2021/05/21 01:53:15;;;;;;;8.97;6.83;;;;;;;;;;5065690;28;20049;-61
2021/05/21 01:55:49;;;;;;;9.40;7.13;;;;;;;;;;5055587;28;20066;-60
2021/05/21 01:58:16;;;;;;;10.30;7.10;;;;;;;;;;5055907;28;20367;-60
2021/05/21 02:00:43;;;;;;;12.27;7.47;;;;;;;;;;5055608;28;20624;-60
2021/05/21 02:03:10;;;;;;;12.00;7.67;;;;;;;;;;5055377;28;20072;-61
2021/05/21 02:05:42;;;;;;;11.43;8.17;;;;;;;;;;5055398;28;20054;-60
2021/05/21 02:08:10;;;;;;;8.97;6.87;;;;;;;;;;5054986;28;20383;-60
2021/05/21 02:10:56;;;;;;;8.27;6.40;;;;;;;;;;5055473;28;20102;-62
2021/05/21 02:13:24;;;;;;;8.80;5.90;;;;;;;;;;5055181;28;20029;-60
2021/05/21 02:15:52;;;;;;;9.53;6.03;;;;;;;;;;5055191;28;20025;-60
2021/05/21 02:18:20;;;;;;;9.73;6.20;;;;;;;;;;5055100;28;20029;-60
2021/05/21 02:20:48;;;;;;;8.97;6.17;;;;;;;;;;5055184;28;20463;-60
2021/05/21 02:23:17;;;;;;;9.87;6.73;;;;;;;;;;5054917;28;20044;-60
2021/05/21 02:25:47;;;;;;;12.53;6.70;;;;;;;;;;5054948;28;20063;-61
2021/05/21 02:28:15;;;;;;;12.37;7.60;;;;;;;;;;5054876;28;20039;-60
2021/05/21 02:30:42;;;;;;;10.93;7.13;;;;;;;;;;5054970;28;20491;-60
2021/05/21 02:33:09;;;;;;;9.10;6.80;;;;;;;;;;5054792;28;20422;-60
2021/05/21 02:35:36;;;;;;;10.47;6.77;;;;;;;;;;5054905;28;20031;-60
2021/05/21 02:38:03;;;;;;;12.43;8.03;;;;;;;;;;5054905;28;20079;-60
2021/05/21 02:40:30;;;;;;;14.03;7.20;;;;;;;;;;5054716;28;20025;-60
2021/05/21 02:42:58;;;;;;;11.93;7.77;;;;;;;;;;5054522;28;20108;-60
2021/05/21 02:45:25;;;;;;;12.03;7.40;;;;;;;;;;5054765;28;20021;-60
2021/05/21 02:47:52;;;;;;;10.23;7.30;;;;;;;;;;5036942;28;20052;-60
2021/05/21 02:50:20;;;;;;;10.47;7.23;;;;;;;;;;5054512;28;20029;-60
2021/05/21 02:52:47;;;;;;;10.43;6.00;;;;;;;;;;5054735;28;20545;-59
2021/05/21 02:55:15;;;;;;;11.00;6.23;;;;;;;;;;5054634;28;20069;-60
2021/05/21 02:57:42;;;;;;;8.23;6.13;;;;;;;;;;5054486;28;20037;-59
2021/05/21 03:00:10;;;;;;;9.50;6.27;;;;;;;;;;5054460;28;20475;-60
2021/05/21 03:02:38;;;;;;;11.37;6.53;;;;;;;;;;5054333;28;20039;-59
2021/05/21 03:05:05;;;;;;;10.43;7.13;;;;;;;;;;5053421;28;20459;-59
2021/05/21 03:07:35;;;;;;;9.30;6.47;;;;;;;;;;5036335;28;20121;-60
2021/05/21 03:10:02;;;;;;;11.47;7.77;;;;;;;;;;5054207;28;20284;-59
2021/05/21 03:12:30;;;;;;;9.83;6.80;;;;;;;;;;5054137;28;20033;-60
2021/05/21 03:14:59;;;;;;;13.07;6.97;;;;;;;;;;5053966;28;20033;-60
2021/05/21 03:17:27;;;;;;;8.93;5.67;;;;;;;;;;5054113;28;20021;-58
2021/05/21 03:19:54;;;;;;;8.70;5.53;;;;;;;;;;5053977;28;20075;-58
2021/05/21 03:22:27;;;;;;;7.27;5.53;;;;;;;;;;5053965;28;20021;-59
2021/05/21 03:24:54;;;;;;;11.50;7.07;;;;;;;;;;5052657;28;20029;-60
2021/05/21 03:27:21;;;;;;;12.20;7.80;;;;;;;;;;5053995;28;20029;-58
2021/05/21 03:29:48;;;;;;;9.20;5.60;;;;;;;;;;5053881;28;20029;-59
2021/05/21 03:32:15;;;;;;;8.63;6.10;;;;;;;;;;5036016;28;20112;-59
2021/05/21 03:34:42;;;;;;;9.43;6.10;;;;;;;;;;5053638;28;20028;-59
2021/05/21 03:37:10;;;;;;;8.43;5.27;;;;;;;;;;5053476;28;20056;-59
2021/05/21 03:39:37;;;;;;;8.93;6.43;;;;;;;;;;5053710;28;20017;-59
2021/05/21 03:42:05;;;;;;;11.83;8.77;;;;;;;;;;5053432;28;20044;-59
2021/05/21 03:44:32;;;;;;;12.40;9.17;;;;;;;;;;5053431;28;20028;-59
2021/05/21 03:47:02;;;;;;;14.30;11.10;;;;;;;;;;5053593;28;20025;-59
2021/05/21 03:49:30;;;;;;;10.83;7.83;;;;;;;;;;5053524;28;20013;-59
2021/05/21 03:51:58;;;;;;;13.17;7.97;;;;;;;;;;5053387;28;20052;-59
2021/05/21 03:54:25;;;;;;;12.97;7.87;;;;;;;;;;5053365;28;20047;-59
2021/05/21 03:56:53;;;;;;;10.27;6.87;;;;;;;;;;5053299;28;20037;-59
2021/05/21 03:59:20;;;;;;;12.87;7.90;;;;;;;;;;5053372;28;20021;-59
2021/05/21 04:01:48;;;;;;;10.93;7.00;;;;;;;;;;5053145;28;20567;-59
2021/05/21 04:04:15;;;;;;;11.70;7.00;;;;;;;;;;5053180;28;20029;-59
2021/05/21 04:06:42;;;;;;;11.97;8.23;;;;;;;;;;5053262;28;20025;-59
2021/05/21 04:09:09;;;;;;;12.30;7.20;;;;;;;;;;5053325;28;20383;-59
2021/05/21 04:11:37;;;;;;;10.30;6.97;;;;;;;;;;5053496;28;20368;-59
2021/05/21 04:14:05;;;;;;;11.47;7.80;;;;;;;;;;5053112;28;20021;-59
2021/05/21 04:16:36;;;;;;;9.30;7.27;;;;;;;;;;5052909;28;20028;-59
2021/05/21 04:19:07;;;;;;;9.73;6.83;;;;;;;;;;5053010;28;20029;-59
2021/05/21 04:21:35;;;;;;;10.80;7.10;;;;;;;;;;5052550;28;20487;-59
2021/05/21 04:24:02;;;;;;;13.70;7.87;;;;;;;;;;5052974;28;20091;-58
2021/05/21 04:26:31;;;;;;;9.33;6.93;;;;;;;;;;5052994;28;20372;-59
2021/05/21 04:28:58;;;;;;;10.70;7.27;;;;;;;;;;5052898;28;20025;-59
2021/05/21 04:31:26;;;;;;;14.40;7.43;;;;;;;;;;5052929;28;20075;-58
2021/05/21 04:33:56;;;;;;;10.87;7.13;;;;;;;;;;5052693;28;20051;-59
2021/05/21 04:36:27;;;;;;;17.97;8.00;;;;;;;;;;5052781;28;20017;-58
2021/05/21 04:38:56;;;;;;;9.97;7.30;;;;;;;;;;5052829;28;20176;-58
2021/05/21 04:41:30;;;;;;;10.67;6.60;;;;;;;;;;5052768;28;20053;-58
2021/05/21 04:43:59;;;;;;;11.83;7.17;;;;;;;;;;5052467;28;20391;-58
2021/05/21 04:46:29;;;;;;;13.00;8.00;;;;;;;;;;5052244;28;20088;-59
2021/05/21 04:48:56;;;;;;;12.10;7.77;;;;;;;;;;5052703;28;20021;-58
2021/05/21 04:51:23;;;;;;;11.97;7.03;;;;;;;;;;5052602;28;20087;-57
2021/05/21 04:53:50;;;;;;;12.30;8.13;;;;;;;;;;5052668;28;20045;-59
2021/05/21 04:56:24;;;;;;;11.97;7.17;;;;;;;;;;5052544;28;20035;-58
2021/05/21 04:58:51;;;;;;;12.77;7.63;;;;;;;;;;5052613;28;20013;-58
2021/05/21 05:01:19;;;;;;;11.47;7.67;;;;;;;;;;5052542;28;20165;-58
2021/05/21 05:03:46;;;;;;;12.00;7.60;;;;;;;;;;5052285;28;20400;-58
2021/05/21 05:06:17;;;;;;;7.87;6.60;;;;;;;;;;5052526;28;20021;-59
2021/05/21 05:08:45;;;;;;;14.23;6.97;;;;;;;;;;5052535;28;20506;-58
2021/05/21 05:11:12;;;;;;;7.27;6.20;;;;;;;;;;5052735;28;20025;-58
2021/05/21 05:13:39;;;;;;;10.10;7.47;;;;;;;;;;5052474;28;20074;-58
2021/05/21 05:16:07;;;;;;;9.77;5.83;;;;;;;;;;5052372;28;20036;-58
2021/05/21 05:18:39;;;;;;;7.60;5.37;;;;;;;;;;5052404;28;20021;-58
2021/05/21 05:21:09;;;;;;;9.37;6.80;;;;;;;;;;5052217;28;20114;-58
2021/05/21 05:23:43;;;;;;;10.27;5.60;;;;;;;;;;5051909;28;20088;-57
2021/05/21 05:26:16;;;;;;;8.37;6.10;;;;;;;;;;5052124;28;20601;-57
2021/05/21 05:28:47;;;;;;;12.80;6.40;;;;;;;;;;5052797;28;20033;-58
2021/05/21 05:31:19;;;;;;;10.10;6.33;;;;;;;;;;5056004;28;20032;-58
2021/05/21 05:33:47;;;;;;;7.57;5.70;;;;;;;;;;5056034;28;20502;-58
2021/05/21 05:36:14;;;;;;;8.40;5.87;;;;;;;;;;5055924;28;20057;-58
2021/05/21 05:38:42;;;;;;;9.73;6.00;;;;;;;;;;5038384;28;20025;-58
2021/05/21 05:41:09;;;;;;;8.00;6.10;;;;;;;;;;5055841;28;20482;-58
2021/05/21 05:43:36;;;;;;;9.37;5.60;;;;;;;;;;5055708;28;20087;-58
2021/05/21 05:46:04;;;;;;;6.13;4.80;;;;;;;;;;5055763;28;20025;-58
2021/05/21 05:48:33;;;;;;;5.20;4.00;;;;;;;;;;5055726;28;20442;-59
2021/05/21 05:51:00;;;;;;;6.90;4.27;;;;;;;;;;5038361;28;20475;-58
2021/05/21 05:53:27;;;;;;;6.37;4.07;;;;;;;;;;5055619;28;20041;-59
2021/05/21 05:55:54;;;;;;;7.00;4.50;;;;;;;;;;5055590;28;20040;-58
2021/05/21 05:58:21;;;;;;;5.43;3.97;;;;;;;;;;5055665;28;20013;-58
2021/05/21 06:00:48;;;;;;;4.30;3.60;;;;;;;;;;5055558;28;20068;-58
2021/05/21 06:03:14;;;;;;;4.40;3.30;;;;;;;;;;5055506;28;20033;-58
2021/05/21 06:05:41;;;;;;;5.40;3.27;;;;;;;;;;5055468;28;20104;-58
2021/05/21 06:08:08;;;;;;;6.57;3.73;;;;;;;;;;5055442;28;20028;-58
2021/05/21 06:10:37;;;;;;;6.13;3.50;;;;;;;;;;5055318;28;20376;-58
2021/05/21 06:13:05;;;;;;;5.60;3.83;;;;;;;;;;5055249;28;20483;-58
2021/05/21 06:15:32;;;;;;;5.37;3.87;;;;;;;;;;5055573;28;20024;-58
2021/05/21 06:17:59;;;;;;;5.23;3.50;;;;;;;;;;5055217;28;20059;-58
2021/05/21 06:20:27;;;;;;;6.03;3.33;;;;;;;;;;5055251;28;20028;-58
2021/05/21 06:22:54;;;;;;;7.47;3.50;;;;;;;;;;5055065;28;20028;-58
2021/05/21 06:25:24;;;;;;;3.77;2.90;;;;;;;;;;5055198;28;20239;-58
2021/05/21 06:27:51;;;;;;;4.43;2.97;;;;;;;;;;5055059;28;20021;-58
2021/05/21 06:30:18;;;;;;;5.70;2.67;;;;;;;;;;5054965;28;20067;-58
2021/05/21 06:32:45;;;;;;;4.47;3.07;;;;;;;;;;5055062;28;20025;-58
2021/05/21 06:35:13;;;;;;;3.70;2.87;;;;;;;;;;5054917;28;20767;-58
2021/05/21 06:37:40;;;;;;;3.77;2.63;;;;;;;;;;5054756;28;20269;-59
2021/05/21 06:40:08;;;;;;;3.73;2.63;;;;;;;;;;5054777;28;20332;-58
2021/05/21 06:42:34;;;;;;;3.53;2.70;;;;;;;;;;5054712;28;20025;-59
2021/05/21 06:45:01;;;;;;;3.97;2.50;;;;;;;;;;5054660;28;20430;-58
2021/05/21 06:47:28;;;;;;;4.67;3.27;;;;;;;;;;5054745;28;20025;-58
2021/05/21 06:49:55;;;;;;;3.87;2.80;;;;;;;;;;5054851;28;20482;-58
2021/05/21 06:52:22;;;;;;;5.00;3.10;;;;;;;;;;5054472;28;20746;-59
2021/05/21 06:54:48;;;;;;;4.43;2.97;;;;;;;;;;5054676;28;20796;-58
2021/05/21 06:57:15;;;;;;;3.70;2.73;;;;;;;;;;5054531;28;20254;-59
2021/05/21 06:59:42;;;;;;;5.40;3.27;;;;;;;;;;5054347;28;20082;-56
2021/05/21 07:02:09;;;;;;;4.07;2.93;;;;;;;;;;5054283;28;20282;-57
2021/05/21 07:04:35;;;;;;;6.07;3.10;;;;;;;;;;5054296;28;20517;-58
2021/05/21 07:07:02;;;;;;;4.13;2.80;;;;;;;;;;5054356;28;20029;-58
2021/05/21 07:09:29;;;;;;;4.10;3.00;;;;;;;;;;5054292;28;20269;-57
2021/05/21 07:11:56;;;;;;;5.00;2.83;;;;;;;;;;5054146;28;20272;-57
2021/05/21 07:14:23;;;;;;;6.73;4.03;;;;;;;;;;5054084;28;20257;-58
2021/05/21 07:16:50;;;;;;;5.20;3.80;;;;;;;;;;5054201;28;20246;-58
2021/05/21 07:19:17;;;;;;;4.00;3.27;;;;;;;;;;5054021;28;20744;-58
2021/05/21 07:21:45;;;;;;;5.00;3.70;;;;;;;;;;5053961;28;20806;-57
2021/05/21 07:24:11;;;;;;;5.23;3.93;;;;;;;;;;5053884;28;20270;-58
2021/05/21 07:26:39;;;;;;;5.70;3.73;;;;;;;;;;5053871;28;20253;-59
2021/05/21 07:29:06;;;;;;;5.83;3.43;;;;;;;;;;5054004;28;20268;-58
2021/05/21 07:31:33;;;;;;;5.00;3.30;;;;;;;;;;5054042;28;20246;-58
2021/05/21 07:34:00;;;;;;;10.37;3.63;;;;;;;;;;5053720;28;20293;-58
2021/05/21 07:36:32;;;;;;;4.40;2.97;;;;;;;;;;5054038;28;20250;-58
2021/05/21 07:38:59;;;;;;;4.97;3.37;;;;;;;;;;5053816;28;20273;-58
2021/05/21 07:41:27;;;;;;;4.33;2.80;;;;;;;;;;5053733;28;20250;-58
2021/05/21 07:43:54;;;;;;;3.90;2.70;;;;;;;;;;5053606;28;20269;-58
2021/05/21 07:46:22;;;;;;;4.97;3.40;;;;;;;;;;5053501;28;20590;-58
2021/05/21 07:48:49;;;;;;;4.60;2.97;;;;;;;;;;5053446;28;20578;-58
2021/05/21 07:51:17;;;;;;;4.40;3.13;;;;;;;;;;5053184;28;20254;-58
2021/05/21 07:53:44;;;;;;;3.87;2.90;;;;;;;;;;5053448;28;20285;-58
2021/05/21 07:56:10;;;;;;;4.93;3.33;;;;;;;;;;5053420;28;20353;-58
2021/05/21 07:58:37;;;;;;;4.23;3.07;;;;;;;;;;5053440;28;20270;-58
2021/05/21 08:01:04;;;;;;;4.70;3.03;;;;;;;;;;5053327;28;20258;-58
2021/05/21 08:03:31;;;;;;;5.90;3.27;;;;;;;;;;5053204;28;20764;-57
2021/05/21 08:05:59;;;;;;;4.47;3.00;;;;;;;;;;5053209;28;20254;-58
2021/05/21 08:08:26;;;;;;;7.90;5.13;;;;;;;;;;5053273;28;20265;-58
2021/05/21 08:10:53;;;;;;;4.80;3.77;;;;;;;;;;5053232;28;20269;-57
2021/05/21 08:13:20;;;;;;;7.80;3.93;;;;;;;;;;5053061;28;20250;-58
2021/05/21 08:15:47;;;;;;;5.53;3.40;;;;;;;;;;5053137;28;20276;-59
2021/05/21 08:18:14;;;;;;;11.30;3.87;;;;;;;;;;5053041;28;20256;-57
2021/05/21 08:20:44;;;;;;;4.60;2.97;;;;;;;;;;5052974;28;20249;-58
2021/05/21 08:23:14;;;;;;;3.70;2.67;;;;;;;;;;5052756;28;20716;-57
2021/05/21 08:25:41;;;;;;;5.33;3.10;;;;;;;;;;5052941;28;20250;-57
2021/05/21 08:28:09;;;;;;;3.87;2.73;;;;;;;;;;5053013;28;20262;-58
2021/05/21 08:30:36;;;;;;;4.13;2.97;;;;;;;;;;5052868;28;20329;-58
2021/05/21 08:33:03;;;;;;;4.17;2.80;;;;;;;;;;5052764;28;20308;-58
2021/05/21 08:35:31;;;;;;;4.43;3.00;;;;;;;;;;5034940;28;20745;-58
2021/05/21 08:37:59;;;;;;;4.33;3.07;;;;;;;;;;5052711;28;20261;-58
2021/05/21 08:40:29;;;;;;;5.47;3.23;;;;;;;;;;5052834;28;20251;-58
2021/05/21 08:42:58;;;;;;;3.87;2.70;;;;;;;;;;5052744;28;20290;-58
2021/05/21 08:45:27;;;;;;;4.70;3.00;;;;;;;;;;5052793;28;20258;-58
2021/05/21 08:47:54;;;;;;;3.90;2.90;;;;;;;;;;5052605;28;20266;-58
2021/05/21 08:50:20;;;;;;;4.37;3.00;;;;;;;;;;5052713;28;20635;-58
2021/05/21 08:52:48;;;;;;;4.43;2.73;;;;;;;;;;5052716;28;20266;-58
2021/05/21 08:55:15;;;;;;;4.37;2.57;;;;;;;;;;5052615;28;20268;-58
2021/05/21 08:57:42;;;;;;;5.17;3.00;;;;;;;;;;5052552;28;20265;-58
2021/05/21 09:00:10;;;;;;;8.53;3.20;;;;;;;;;;5052640;28;20390;-58
2021/05/21 09:02:38;;;;;;;3.83;2.63;;;;;;;;;;5052440;28;20302;-57
2021/05/21 09:05:06;;;;;;;4.20;3.03;;;;;;;;;;5037804;28;20779;-58
2021/05/21 09:07:34;;;;;;;3.67;2.67;;;;;;;;;;5056582;28;20261;-57
2021/05/21 09:10:10;;;;;;;5.13;2.70;;;;;;;;;;5056574;28;20434;-58
2021/05/21 09:12:38;;;;;;;5.47;3.00;;;;;;;;;;5038474;28;20344;-58
2021/05/21 09:15:05;;;;;;;5.00;3.30;;;;;;;;;;5056410;28;20316;-58
2021/05/21 09:17:32;;;;;;;4.83;3.53;;;;;;;;;;5056455;28;20266;-58
2021/05/21 09:19:59;;;;;;;3.90;2.57;;;;;;;;;;5038586;28;20262;-58
2021/05/21 09:22:26;;;;;;;3.73;2.53;;;;;;;;;;5056274;28;20633;-58
2021/05/21 09:24:54;;;;;;;5.27;2.90;;;;;;;;;;5056374;28;20265;-58
2021/05/21 09:27:21;;;;;;;5.40;3.27;;;;;;;;;;5056134;28;20648;-57
2021/05/21 09:29:49;;;;;;;4.03;2.60;;;;;;;;;;5056087;28;20605;-58
2021/05/21 09:32:29;;;;;;;7.90;2.70;;;;;;;;;;5056017;28;20262;-58
2021/05/21 09:35:19;;;;;;;4.67;3.10;;;;;;;;;;5056164;28;20269;-58
2021/05/21 09:37:47;;;;;;;5.53;2.80;;;;;;;;;;5056108;28;20274;-59
2021/05/21 09:40:15;;;;;;;5.13;2.83;;;;;;;;;;5055990;28;20254;-58
2021/05/21 09:42:53;;;;;;;4.17;2.90;;;;;;;;;;5055769;28;20270;-58
2021/05/21 09:45:27;;;;;;;4.83;3.70;;;;;;;;;;5055851;28;20814;-58
2021/05/21 09:47:58;;;;;;;6.63;3.78;;;;;;;;;;5055908;28;20258;-58
2021/05/21 09:50:30;;;;;;;8.33;3.63;;;;;;;;;;5055843;28;20032;-58
2021/05/21 09:53:01;;;;;;;5.73;3.40;;;;;;;;;;5055698;28;20251;-59
2021/05/21 09:55:38;;;;;;;5.87;3.73;;;;;;;;;;5055689;28;20309;-58
2021/05/21 09:58:05;;;;;;;6.63;3.53;;;;;;;;;;5055653;28;20613;-58
2021/05/21 10:00:32;;;;;;;4.40;2.77;;;;;;;;;;5055550;28;20266;-58
2021/05/21 10:03:00;;;;;;;4.97;2.70;;;;;;;;;;5055505;28;20290;-58
2021/05/21 10:05:27;;;;;;;4.80;3.20;;;;;;;;;;5055507;28;20800;-59
2021/05/21 10:07:55;;;;;;;4.20;2.90;;;;;;;;;;5055523;28;20620;-57
2021/05/21 10:10:24;;;;;;;4.53;3.07;;;;;;;;;;5055550;28;20258;-57
2021/05/21 10:12:51;;;;;;;4.57;3.00;;;;;;;;;;5055396;28;20676;-57
2021/05/21 10:15:18;;;;;;;4.20;3.13;;;;;;;;;;5054987;28;20255;-57
2021/05/21 10:17:45;;;;;;;4.50;2.97;;;;;;;;;;5055640;28;20647;-58
2021/05/21 10:20:17;;;;;;;3.47;2.63;;;;;;;;;;5055186;28;20276;-57
2021/05/21 10:22:45;;;;;;;7.20;3.57;;;;;;;;;;5055131;28;20296;-58
2021/05/21 10:25:25;;;;;;;5.63;2.67;;;;;;;;;;5055353;28;20334;-57
2021/05/21 10:27:54;;;;;;;5.03;2.70;;;;;;;;;;5055134;28;20324;-58
2021/05/21 10:30:22;;;;;;;7.80;3.40;;;;;;;;;;5055114;28;20250;-58
2021/05/21 10:32:48;;;;;;;4.60;3.40;;;;;;;;;;5054964;28;20923;-59
2021/05/21 10:35:17;;;;;;;4.53;3.03;;;;;;;;;;5054957;28;20254;-58
2021/05/21 10:37:44;;;;;;;4.20;2.90;;;;;;;;;;5054878;28;20277;-58
2021/05/21 10:40:13;;;;;;;4.73;2.50;;;;;;;;;;5054765;28;20807;-58
2021/05/21 10:42:47;;;;;;;4.17;2.57;;;;;;;;;;5054675;28;20336;-58
2021/05/21 10:45:15;;;;;;;5.00;3.00;;;;;;;;;;5054680;28;20266;-58
2021/05/21 10:47:45;;;;;;;4.73;3.30;;;;;;;;;;5054698;28;20759;-58
2021/05/21 10:50:22;;;;;;;3.87;2.80;;;;;;;;;;5054878;28;20274;-58
2021/05/21 10:52:48;;;;;;;3.50;2.63;;;;;;;;;;5054834;28;20284;-58
2021/05/21 10:55:15;;;;;;;5.37;2.93;;;;;;;;;;5054644;28;20286;-58
2021/05/21 10:57:42;;;;;;;4.33;2.77;;;;;;;;;;5054438;28;20361;-58
2021/05/21 11:00:09;;;;;;;4.57;3.00;;;;;;;;;;5054387;28;20277;-58
2021/05/21 11:02:45;;;;;;;4.03;2.93;;;;;;;;;;5054297;28;20691;-58
2021/05/21 11:05:27;;;;;;;4.03;2.97;;;;;;;;;;5054346;28;20254;-58
2021/05/21 11:08:14;;;;;;;3.83;2.77;;;;;;;;;;5054267;28;20737;-58
2021/05/21 11:10:43;;;;;;;4.23;3.07;;;;;;;;;;5054245;28;20413;-58
2021/05/21 11:13:14;;;;;;;4.33;3.20;;;;;;;;;;5054029;28;20261;-58
2021/05/21 11:15:42;;;;;;;6.57;3.20;;;;;;;;;;5054102;28;20741;-58
2021/05/21 11:18:15;;;;;;;4.03;3.10;;;;;;;;;;5054160;28;20261;-58
2021/05/21 11:21:00;;;;;;;6.43;3.17;;;;;;;;;;5054067;28;20273;-58
2021/05/21 11:23:34;;;;;;;4.50;3.22;;;;;;;;;;5053942;28;20285;-59
2021/05/21 11:26:05;;;;;;;4.32;3.05;;;;;;;;;;5053326;28;20025;-58
2021/05/21 11:28:39;;;;;;;4.33;2.83;;;;;;;;;;5053885;28;20025;-58
2021/05/21 11:31:09;;;;;;;7.17;3.40;;;;;;;;;;5053905;28;20261;-58
2021/05/21 11:33:36;;;;;;;4.00;2.83;;;;;;;;;;5036015;28;20735;-58
2021/05/21 11:36:17;;;;;;;5.37;3.40;;;;;;;;;;5053894;28;20251;-58
2021/05/21 11:38:44;;;;;;;5.50;2.77;;;;;;;;;;5053689;28;20856;-58
2021/05/21 11:41:14;;;;;;;4.63;3.40;;;;;;;;;;5053702;28;20782;-58
2021/05/21 11:43:42;;;;;;;5.77;3.37;;;;;;;;;;5053498;28;20447;-58
2021/05/21 11:46:15;;;;;;;6.47;2.83;;;;;;;;;;5053537;28;20277;-58
2021/05/21 11:48:42;;;;;;;4.50;2.83;;;;;;;;;;5053469;28;20440;-58
2021/05/21 11:51:16;;;;;;;4.47;2.97;;;;;;;;;;5053489;28;20261;-58
2021/05/21 11:53:53;;;;;;;4.13;2.90;;;;;;;;;;5053450;28;20288;-58
2021/05/21 11:56:35;;;;;;;4.80;3.50;;;;;;;;;;5053710;28;20250;-58
2021/05/21 11:59:05;;;;;;;5.17;3.30;;;;;;;;;;5053420;28;20329;-58
2021/05/21 12:01:33;;;;;;;4.57;3.30;;;;;;;;;;5053358;28;20333;-58
2021/05/21 12:04:07;;;;;;;5.93;3.30;;;;;;;;;;5053020;28;20290;-58
2021/05/21 12:06:35;;;;;;;5.20;3.60;;;;;;;;;;5053196;28;20600;-58
2021/05/21 12:09:04;;;;;;;6.20;3.40;;;;;;;;;;5053100;28;20312;-58
2021/05/21 12:11:31;;;;;;;6.53;3.50;;;;;;;;;;5053076;28;20621;-58
2021/05/21 12:14:05;;;;;;;5.47;3.50;;;;;;;;;;5053070;28;20315;-58
2021/05/21 12:16:32;;;;;;;3.67;2.50;;;;;;;;;;5053138;28;20261;-58
2021/05/21 12:18:59;;;;;;;4.63;2.93;;;;;;;;;;5053065;28;20288;-58
2021/05/21 12:21:27;;;;;;;4.00;2.80;;;;;;;;;;5053070;28;20753;-58
2021/05/21 12:23:56;;;;;;;4.00;2.70;;;;;;;;;;5052775;28;20286;-58
2021/05/21 12:26:25;;;;;;;4.40;3.40;;;;;;;;;;5053179;28;20258;-58
2021/05/21 12:28:53;;;;;;;5.63;3.60;;;;;;;;;;5052855;28;20598;-58
2021/05/21 12:31:24;;;;;;;7.47;3.37;;;;;;;;;;5052774;28;20660;-58
2021/05/21 12:33:51;;;;;;;5.37;3.93;;;;;;;;;;5052710;28;20337;-58
2021/05/21 12:36:18;;;;;;;6.30;3.27;;;;;;;;;;5035004;28;20433;-58
2021/05/21 12:38:56;;;;;;;5.40;3.30;;;;;;;;;;5052627;28;20269;-58
2021/05/21 12:41:33;;;;;;;4.77;2.90;;;;;;;;;;5052662;28;20716;-58
2021/05/21 12:44:15;;;;;;;6.73;3.93;;;;;;;;;;5052725;28;20363;-58
2021/05/21 12:46:57;;;;;;;5.27;3.70;;;;;;;;;;5052030;28;20258;-58
2021/05/21 12:49:30;;;;;;;6.13;3.77;;;;;;;;;;5052863;28;20752;-58
2021/05/21 12:52:02;;;;;;;5.87;4.10;;;;;;;;;;5052424;28;20672;-59
2021/05/21 12:54:31;;;;;;;7.27;5.13;;;;;;;;;;5032024;28;20841;-58
2021/05/21 12:57:00;;;;;;;10.10;5.87;;;;;;;;;;5032644;28;20262;-59
2021/05/21 12:59:34;;;;;;;8.60;6.00;;;;;;;;;;5015113;28;20302;-59
2021/05/21 13:02:01;;;;;;;10.07;6.33;;;;;;;;;;5032316;28;20710;-58
2021/05/21 13:04:28;;;;;;;10.70;6.83;;;;;;;;;;5015214;28;20799;-58
2021/05/21 13:06:56;;;;;;;10.10;7.20;;;;;;;;;;5032618;28;20837;-59
2021/05/21 13:09:24;;;;;;;8.57;6.67;;;;;;;;;;5032489;28;20274;-58
2021/05/21 13:12:03;;;;;;;6.97;5.87;;;;;;;;;;5032403;28;20282;-58
2021/05/21 13:14:31;;;;;;;8.53;5.83;;;;;;;;;;5032375;28;20258;-58
2021/05/21 13:16:59;;;;;;;7.97;5.13;;;;;;;;;;5032585;28;20316;-58
2021/05/21 13:19:26;;;;;;;7.23;5.60;;;;;;;;;;5032366;28;20341;-58
2021/05/21 13:21:57;;;;;;;8.80;5.60;;;;;;;;;;5032213;28;20259;-58
2021/05/21 13:24:24;;;;;;;7.17;5.50;;;;;;;;;;5032410;28;20267;-58
2021/05/21 13:26:54;;;;;;;10.23;6.17;;;;;;;;;;5032410;28;20018;-58
2021/05/21 13:29:22;;;;;;;9.00;5.53;;;;;;;;;;5032279;28;20021;-58
2021/05/21 13:31:49;;;;;;;8.37;4.80;;;;;;;;;;5032246;28;20029;-58
2021/05/21 13:34:17;;;;;;;4.83;3.73;;;;;;;;;;5032307;28;20476;-58
2021/05/21 13:36:44;;;;;;;7.83;3.97;;;;;;;;;;5032298;28;20434;-58
2021/05/21 13:39:11;;;;;;;8.80;3.77;;;;;;;;;;5032268;28;20030;-58
2021/05/21 13:41:38;;;;;;;5.27;3.70;;;;;;;;;;5032384;28;20029;-58
2021/05/21 13:44:05;;;;;;;6.13;3.90;;;;;;;;;;5032552;28;20033;-58
2021/05/21 13:46:33;;;;;;;5.27;3.70;;;;;;;;;;5032337;28;20104;-58
2021/05/21 13:49:08;;;;;;;8.50;4.17;;;;;;;;;;5032002;28;20033;-58
2021/05/21 13:51:40;;;;;;;6.40;2.90;;;;;;;;;;5032737;28;20329;-58
2021/05/21 13:54:08;;;;;;;6.40;3.67;;;;;;;;;;5034851;28;20403;-58
2021/05/21 13:56:39;;;;;;;8.30;3.53;;;;;;;;;;5035963;28;20025;-58
2021/05/21 13:59:07;;;;;;;4.63;3.07;;;;;;;;;;5035816;28;20037;-58
2021/05/21 14:01:34;;;;;;;3.63;2.87;;;;;;;;;;5035998;28;20025;-58
2021/05/21 14:04:01;;;;;;;4.93;3.83;;;;;;;;;;5035429;28;20116;-58
2021/05/21 14:06:28;;;;;;;5.60;3.53;;;;;;;;;;5035645;28;20092;-58
2021/05/21 14:08:55;;;;;;;6.07;3.73;;;;;;;;;;5035407;28;20483;-59
2021/05/21 14:11:22;;;;;;;8.77;3.87;;;;;;;;;;5035396;28;20397;-57
2021/05/21 14:13:48;;;;;;;6.40;4.03;;;;;;;;;;5035367;28;20026;-57
2021/05/21 14:16:15;;;;;;;6.23;3.90;;;;;;;;;;5035450;28;20055;-58
2021/05/21 14:18:42;;;;;;;6.27;4.00;;;;;;;;;;5035408;28;20022;-58
2021/05/21 14:21:09;;;;;;;5.23;3.73;;;;;;;;;;5035323;28;20033;-58
2021/05/21 14:23:36;;;;;;;6.67;3.80;;;;;;;;;;5035201;28;20033;-58
2021/05/21 14:26:05;;;;;;;11.40;4.00;;;;;;;;;;5035362;28;20052;-58
2021/05/21 14:28:31;;;;;;;7.83;3.40;;;;;;;;;;5035185;28;20431;-58
2021/05/21 14:30:58;;;;;;;5.37;3.50;;;;;;;;;;5035071;28;20480;-58
2021/05/21 14:33:32;;;;;;;6.47;3.60;;;;;;;;;;5034861;28;20037;-58
2021/05/21 14:35:59;;;;;;;6.63;3.13;;;;;;;;;;5034879;28;20392;-59
2021/05/21 14:38:26;;;;;;;7.70;3.03;;;;;;;;;;5034921;28;20030;-58
2021/05/21 14:41:02;;;;;;;6.83;3.53;;;;;;;;;;5017175;28;20025;-58
2021/05/21 14:44:02;;;;;;;6.87;3.43;;;;;;;;;;5034724;28;20060;-59
2021/05/21 14:46:20;;;;;;;4.87;3.20;;;;;;;;;;5028414;28;20060;-59
2021/05/21 14:48:47;;;;;;;6.67;3.57;;;;;;;;;;5034441;28;20029;-58
2021/05/21 14:51:16;;;;;;;5.40;3.50;;;;;;;;;;5034718;28;20091;-59
2021/05/21 14:54:05;;;;;;;7.77;3.60;;;;;;;;;;5035555;28;20029;-59
2021/05/21 14:56:36;;;;;;;6.67;4.20;;;;;;;;;;5033777;28;20391;-58
2021/05/21 14:59:17;;;;;;;5.80;3.63;;;;;;;;;;5034528;28;20029;-58
2021/05/21 15:01:49;;;;;;;5.43;3.67;;;;;;;;;;5034539;28;20025;-59
2021/05/21 15:04:17;;;;;;;4.70;3.00;;;;;;;;;;5034513;28;20104;-59
2021/05/21 15:06:50;;;;;;;7.13;3.90;;;;;;;;;;5034335;28;20042;-60